sensor_id;sensor_type;location;lat;lon;timestamp;P1;durP1;ratioP1;P2;durP2;ratioP2
33740;SDS011;20065;48.380;10.892;2023-06-14T00:00:10;7.30;;;4.93;;
33740;SDS011;20065;48.380;10.892;2023-06-14T00:02:57;7.27;;;5.53;;
33740;SDS011;20065;48.380;10.892;2023-06-14T00:05:43;9.90;;;6.70;;
33740;SDS011;20065;48.380;10.892;2023-06-14T00:08:31;11.77;;;7.23;;
33740;SDS011;20065;48.380;10.892;2023-06-14T00:11:18;9.17;;;6.73;;
33740;SDS011;20065;48.380;10.892;2023-06-14T00:14:04;8.50;;;5.77;;
33740;SDS011;20065;48.380;10.892;2023-06-14T00:16:50;8.37;;;5.40;;
33740;SDS011;20065;48.380;10.892;2023-06-14T00:19:38;8.27;;;5.73;;
33740;SDS011;20065;48.380;10.892;2023-06-14T00:22:25;8.70;;;4.90;;
33740;SDS011;20065;48.380;10.892;2023-06-14T00:25:14;6.80;;;4.57;;
33740;SDS011;20065;48.380;10.892;2023-06-14T00:28:00;7.80;;;5.20;;
33740;SDS011;20065;48.380;10.892;2023-06-14T00:30:46;8.93;;;6.10;;
33740;SDS011;20065;48.380;10.892;2023-06-14T00:33:33;7.33;;;4.83;;
33740;SDS011;20065;48.380;10.892;2023-06-14T00:36:19;6.70;;;5.43;;
33740;SDS011;20065;48.380;10.892;2023-06-14T00:39:05;8.23;;;5.40;;
33740;SDS011;20065;48.380;10.892;2023-06-14T00:41:51;10.27;;;5.63;;
33740;SDS011;20065;48.380;10.892;2023-06-14T00:44:40;12.40;;;5.40;;
33740;SDS011;20065;48.380;10.892;2023-06-14T00:47:27;8.70;;;5.23;;
33740;SDS011;20065;48.380;10.892;2023-06-14T00:50:13;9.60;;;5.97;;
33740;SDS011;20065;48.380;10.892;2023-06-14T00:53:00;10.80;;;5.60;;
33740;SDS011;20065;48.380;10.892;2023-06-14T00:55:47;12.53;;;6.43;;
33740;SDS011;20065;48.380;10.892;2023-06-14T00:58:35;7.00;;;5.13;;
33740;SDS011;20065;48.380;10.892;2023-06-14T01:01:22;7.03;;;5.13;;
33740;SDS011;20065;48.380;10.892;2023-06-14T01:04:09;7.93;;;4.97;;
33740;SDS011;20065;48.380;10.892;2023-06-14T01:07:02;11.63;;;5.57;;
33740;SDS011;20065;48.380;10.892;2023-06-14T01:13:15;11.40;;;5.87;;
33740;SDS011;20065;48.380;10.892;2023-06-14T01:16:18;8.87;;;6.33;;
33740;SDS011;20065;48.380;10.892;2023-06-14T01:19:05;10.03;;;5.70;;
33740;SDS011;20065;48.380;10.892;2023-06-14T01:22:00;10.93;;;6.10;;
33740;SDS011;20065;48.380;10.892;2023-06-14T01:24:46;10.83;;;5.40;;
33740;SDS011;20065;48.380;10.892;2023-06-14T01:27:32;9.80;;;6.67;;
33740;SDS011;20065;48.380;10.892;2023-06-14T01:30:23;7.70;;;5.77;;
33740;SDS011;20065;48.380;10.892;2023-06-14T01:33:17;11.27;;;6.47;;
33740;SDS011;20065;48.380;10.892;2023-06-14T01:36:06;8.37;;;6.47;;
33740;SDS011;20065;48.380;10.892;2023-06-14T01:38:53;9.83;;;5.90;;
33740;SDS011;20065;48.380;10.892;2023-06-14T01:41:42;10.63;;;6.30;;
33740;SDS011;20065;48.380;10.892;2023-06-14T01:44:29;10.17;;;6.40;;
33740;SDS011;20065;48.380;10.892;2023-06-14T01:47:16;11.73;;;5.70;;
33740;SDS011;20065;48.380;10.892;2023-06-14T01:50:03;9.50;;;6.30;;
33740;SDS011;20065;48.380;10.892;2023-06-14T01:52:50;12.17;;;7.03;;
33740;SDS011;20065;48.380;10.892;2023-06-14T01:55:37;10.10;;;6.73;;
33740;SDS011;20065;48.380;10.892;2023-06-14T01:58:26;9.77;;;6.30;;
33740;SDS011;20065;48.380;10.892;2023-06-14T02:01:12;10.47;;;6.30;;
33740;SDS011;20065;48.380;10.892;2023-06-14T02:03:59;15.50;;;6.13;;
33740;SDS011;20065;48.380;10.892;2023-06-14T02:06:46;12.17;;;6.03;;
33740;SDS011;20065;48.380;10.892;2023-06-14T02:09:32;8.57;;;6.10;;
33740;SDS011;20065;48.380;10.892;2023-06-14T02:12:18;12.20;;;6.60;;
33740;SDS011;20065;48.380;10.892;2023-06-14T02:15:05;10.73;;;5.70;;
33740;SDS011;20065;48.380;10.892;2023-06-14T02:18:20;8.07;;;5.13;;
33740;SDS011;20065;48.380;10.892;2023-06-14T02:21:07;11.00;;;5.70;;
33740;SDS011;20065;48.380;10.892;2023-06-14T02:23:53;8.80;;;5.90;;
33740;SDS011;20065;48.380;10.892;2023-06-14T02:26:40;8.73;;;5.30;;
33740;SDS011;20065;48.380;10.892;2023-06-14T02:29:32;8.80;;;5.43;;
33740;SDS011;20065;48.380;10.892;2023-06-14T02:32:19;9.00;;;5.30;;
33740;SDS011;20065;48.380;10.892;2023-06-14T02:35:05;8.50;;;5.33;;
33740;SDS011;20065;48.380;10.892;2023-06-14T02:37:54;11.33;;;5.60;;
33740;SDS011;20065;48.380;10.892;2023-06-14T02:40:41;11.00;;;6.67;;
33740;SDS011;20065;48.380;10.892;2023-06-14T02:43:28;9.77;;;6.10;;
33740;SDS011;20065;48.380;10.892;2023-06-14T02:46:15;12.80;;;5.70;;
33740;SDS011;20065;48.380;10.892;2023-06-14T02:49:01;9.60;;;6.00;;
33740;SDS011;20065;48.380;10.892;2023-06-14T02:51:47;8.30;;;5.57;;
33740;SDS011;20065;48.380;10.892;2023-06-14T02:54:37;10.07;;;5.90;;
33740;SDS011;20065;48.380;10.892;2023-06-14T02:57:24;7.97;;;5.63;;
33740;SDS011;20065;48.380;10.892;2023-06-14T03:00:11;13.23;;;6.50;;
33740;SDS011;20065;48.380;10.892;2023-06-14T03:03:00;11.00;;;6.40;;
33740;SDS011;20065;48.380;10.892;2023-06-14T03:05:48;7.73;;;5.20;;
33740;SDS011;20065;48.380;10.892;2023-06-14T03:08:39;10.17;;;5.83;;
33740;SDS011;20065;48.380;10.892;2023-06-14T03:11:34;9.63;;;5.90;;
33740;SDS011;20065;48.380;10.892;2023-06-14T03:14:21;13.63;;;5.77;;
33740;SDS011;20065;48.380;10.892;2023-06-14T03:17:07;8.67;;;5.87;;
33740;SDS011;20065;48.380;10.892;2023-06-14T03:19:56;9.57;;;6.17;;
33740;SDS011;20065;48.380;10.892;2023-06-14T03:22:42;11.37;;;5.70;;
33740;SDS011;20065;48.380;10.892;2023-06-14T03:25:31;9.90;;;5.73;;
33740;SDS011;20065;48.380;10.892;2023-06-14T03:28:21;10.13;;;5.73;;
33740;SDS011;20065;48.380;10.892;2023-06-14T03:31:08;10.03;;;5.60;;
33740;SDS011;20065;48.380;10.892;2023-06-14T03:33:55;12.03;;;6.40;;
33740;SDS011;20065;48.380;10.892;2023-06-14T03:36:42;9.30;;;6.17;;
33740;SDS011;20065;48.380;10.892;2023-06-14T03:39:28;8.90;;;6.40;;
33740;SDS011;20065;48.380;10.892;2023-06-14T03:42:15;9.37;;;5.83;;
33740;SDS011;20065;48.380;10.892;2023-06-14T03:45:03;9.43;;;5.83;;
33740;SDS011;20065;48.380;10.892;2023-06-14T03:47:50;10.57;;;6.53;;
33740;SDS011;20065;48.380;10.892;2023-06-14T03:50:37;9.00;;;5.70;;
33740;SDS011;20065;48.380;10.892;2023-06-14T03:53:25;11.10;;;6.30;;
33740;SDS011;20065;48.380;10.892;2023-06-14T03:56:13;9.20;;;6.23;;
33740;SDS011;20065;48.380;10.892;2023-06-14T03:59:02;9.23;;;6.73;;
33740;SDS011;20065;48.380;10.892;2023-06-14T04:01:49;7.80;;;6.00;;
33740;SDS011;20065;48.380;10.892;2023-06-14T04:04:36;10.07;;;6.30;;
33740;SDS011;20065;48.380;10.892;2023-06-14T04:07:23;8.17;;;5.90;;
33740;SDS011;20065;48.380;10.892;2023-06-14T04:10:12;10.77;;;6.80;;
33740;SDS011;20065;48.380;10.892;2023-06-14T04:12:58;11.40;;;7.40;;
33740;SDS011;20065;48.380;10.892;2023-06-14T04:15:45;11.33;;;6.17;;
33740;SDS011;20065;48.380;10.892;2023-06-14T04:18:35;12.53;;;6.53;;
33740;SDS011;20065;48.380;10.892;2023-06-14T04:21:22;10.50;;;7.07;;
33740;SDS011;20065;48.380;10.892;2023-06-14T04:24:09;11.80;;;6.37;;
33740;SDS011;20065;48.380;10.892;2023-06-14T04:27:00;9.80;;;7.43;;
33740;SDS011;20065;48.380;10.892;2023-06-14T04:29:48;9.20;;;7.40;;
33740;SDS011;20065;48.380;10.892;2023-06-14T04:32:35;10.20;;;6.80;;
33740;SDS011;20065;48.380;10.892;2023-06-14T04:35:25;13.10;;;6.07;;
33740;SDS011;20065;48.380;10.892;2023-06-14T04:38:15;9.63;;;6.27;;
33740;SDS011;20065;48.380;10.892;2023-06-14T04:41:04;8.33;;;6.07;;
33740;SDS011;20065;48.380;10.892;2023-06-14T04:43:51;9.53;;;6.03;;
33740;SDS011;20065;48.380;10.892;2023-06-14T04:46:39;11.23;;;6.60;;
33740;SDS011;20065;48.380;10.892;2023-06-14T04:49:35;11.87;;;6.70;;
33740;SDS011;20065;48.380;10.892;2023-06-14T04:52:21;9.70;;;6.63;;
33740;SDS011;20065;48.380;10.892;2023-06-14T04:55:08;11.20;;;6.33;;
33740;SDS011;20065;48.380;10.892;2023-06-14T04:57:55;9.70;;;6.30;;
33740;SDS011;20065;48.380;10.892;2023-06-14T05:00:41;11.50;;;7.17;;
33740;SDS011;20065;48.380;10.892;2023-06-14T05:03:28;9.00;;;6.13;;
33740;SDS011;20065;48.380;10.892;2023-06-14T05:06:16;11.03;;;6.30;;
33740;SDS011;20065;48.380;10.892;2023-06-14T05:09:03;11.50;;;5.80;;
33740;SDS011;20065;48.380;10.892;2023-06-14T05:11:49;8.60;;;5.87;;
33740;SDS011;20065;48.380;10.892;2023-06-14T05:14:36;8.03;;;5.77;;
33740;SDS011;20065;48.380;10.892;2023-06-14T05:17:24;10.70;;;6.20;;
33740;SDS011;20065;48.380;10.892;2023-06-14T05:20:10;9.80;;;5.70;;
33740;SDS011;20065;48.380;10.892;2023-06-14T05:22:56;9.90;;;6.20;;
33740;SDS011;20065;48.380;10.892;2023-06-14T05:25:43;9.50;;;5.27;;
33740;SDS011;20065;48.380;10.892;2023-06-14T05:28:30;9.10;;;5.57;;
33740;SDS011;20065;48.380;10.892;2023-06-14T05:31:16;15.63;;;6.77;;
33740;SDS011;20065;48.380;10.892;2023-06-14T05:34:03;11.87;;;6.10;;
33740;SDS011;20065;48.380;10.892;2023-06-14T05:36:49;8.00;;;6.00;;
33740;SDS011;20065;48.380;10.892;2023-06-14T05:39:35;9.27;;;6.07;;
33740;SDS011;20065;48.380;10.892;2023-06-14T05:42:21;9.13;;;5.80;;
33740;SDS011;20065;48.380;10.892;2023-06-14T05:45:08;11.50;;;5.80;;
33740;SDS011;20065;48.380;10.892;2023-06-14T05:47:54;8.80;;;5.40;;
33740;SDS011;20065;48.380;10.892;2023-06-14T05:50:40;8.53;;;5.37;;
33740;SDS011;20065;48.380;10.892;2023-06-14T05:53:27;8.67;;;5.17;;
33740;SDS011;20065;48.380;10.892;2023-06-14T05:56:13;6.93;;;4.73;;
33740;SDS011;20065;48.380;10.892;2023-06-14T05:59:00;6.87;;;4.70;;
33740;SDS011;20065;48.380;10.892;2023-06-14T06:01:46;7.70;;;4.93;;
33740;SDS011;20065;48.380;10.892;2023-06-14T06:04:34;8.63;;;5.00;;
33740;SDS011;20065;48.380;10.892;2023-06-14T06:07:20;7.07;;;4.47;;
33740;SDS011;20065;48.380;10.892;2023-06-14T06:10:07;9.53;;;4.93;;
33740;SDS011;20065;48.380;10.892;2023-06-14T06:12:54;9.10;;;5.03;;
33740;SDS011;20065;48.380;10.892;2023-06-14T06:15:40;8.57;;;4.90;;
33740;SDS011;20065;48.380;10.892;2023-06-14T06:18:26;6.90;;;4.53;;
33740;SDS011;20065;48.380;10.892;2023-06-14T06:21:12;7.10;;;5.00;;
33740;SDS011;20065;48.380;10.892;2023-06-14T06:23:58;8.23;;;5.23;;
33740;SDS011;20065;48.380;10.892;2023-06-14T06:26:48;8.23;;;5.20;;
33740;SDS011;20065;48.380;10.892;2023-06-14T06:29:35;10.17;;;6.90;;
33740;SDS011;20065;48.380;10.892;2023-06-14T06:32:21;6.20;;;4.30;;
33740;SDS011;20065;48.380;10.892;2023-06-14T06:35:07;10.80;;;5.33;;
33740;SDS011;20065;48.380;10.892;2023-06-14T06:37:56;7.57;;;3.97;;
33740;SDS011;20065;48.380;10.892;2023-06-14T06:40:42;8.87;;;5.33;;
33740;SDS011;20065;48.380;10.892;2023-06-14T06:43:29;6.57;;;4.33;;
33740;SDS011;20065;48.380;10.892;2023-06-14T06:46:17;7.93;;;5.10;;
33740;SDS011;20065;48.380;10.892;2023-06-14T06:49:04;8.27;;;5.43;;
33740;SDS011;20065;48.380;10.892;2023-06-14T06:52:00;11.93;;;5.17;;
33740;SDS011;20065;48.380;10.892;2023-06-14T06:54:48;9.13;;;5.30;;
33740;SDS011;20065;48.380;10.892;2023-06-14T06:57:36;9.97;;;5.20;;
33740;SDS011;20065;48.380;10.892;2023-06-14T07:00:22;7.27;;;4.80;;
33740;SDS011;20065;48.380;10.892;2023-06-14T07:03:08;6.70;;;4.67;;
33740;SDS011;20065;48.380;10.892;2023-06-14T07:05:54;7.83;;;4.17;;
33740;SDS011;20065;48.380;10.892;2023-06-14T07:08:41;8.80;;;4.23;;
33740;SDS011;20065;48.380;10.892;2023-06-14T07:11:27;9.20;;;4.20;;
33740;SDS011;20065;48.380;10.892;2023-06-14T07:14:13;7.97;;;4.30;;
33740;SDS011;20065;48.380;10.892;2023-06-14T07:17:00;7.10;;;3.77;;
33740;SDS011;20065;48.380;10.892;2023-06-14T07:19:46;7.00;;;4.23;;
33740;SDS011;20065;48.380;10.892;2023-06-14T07:22:40;6.53;;;3.43;;
33740;SDS011;20065;48.380;10.892;2023-06-14T07:25:30;7.43;;;4.77;;
33740;SDS011;20065;48.380;10.892;2023-06-14T07:28:16;8.77;;;4.33;;
33740;SDS011;20065;48.380;10.892;2023-06-14T07:31:03;7.13;;;3.87;;
33740;SDS011;20065;48.380;10.892;2023-06-14T07:33:50;7.20;;;3.50;;
33740;SDS011;20065;48.380;10.892;2023-06-14T07:36:36;7.77;;;4.40;;
33740;SDS011;20065;48.380;10.892;2023-06-14T07:39:23;8.10;;;4.60;;
33740;SDS011;20065;48.380;10.892;2023-06-14T07:42:09;8.03;;;4.60;;
33740;SDS011;20065;48.380;10.892;2023-06-14T07:44:56;9.37;;;4.37;;
33740;SDS011;20065;48.380;10.892;2023-06-14T07:47:42;5.70;;;3.37;;
33740;SDS011;20065;48.380;10.892;2023-06-14T07:50:28;5.27;;;3.30;;
33740;SDS011;20065;48.380;10.892;2023-06-14T07:53:15;10.13;;;4.03;;
33740;SDS011;20065;48.380;10.892;2023-06-14T07:56:02;6.33;;;3.00;;
33740;SDS011;20065;48.380;10.892;2023-06-14T07:58:48;6.57;;;3.30;;
33740;SDS011;20065;48.380;10.892;2023-06-14T08:01:34;5.80;;;3.40;;
33740;SDS011;20065;48.380;10.892;2023-06-14T08:04:21;5.63;;;3.43;;
33740;SDS011;20065;48.380;10.892;2023-06-14T08:07:07;10.03;;;3.53;;
33740;SDS011;20065;48.380;10.892;2023-06-14T08:09:54;4.90;;;3.07;;
33740;SDS011;20065;48.380;10.892;2023-06-14T08:12:40;5.73;;;3.67;;
33740;SDS011;20065;48.380;10.892;2023-06-14T08:15:27;7.00;;;3.63;;
33740;SDS011;20065;48.380;10.892;2023-06-14T08:18:13;6.20;;;4.10;;
33740;SDS011;20065;48.380;10.892;2023-06-14T08:20:59;7.30;;;3.67;;
33740;SDS011;20065;48.380;10.892;2023-06-14T08:23:45;6.07;;;3.50;;
33740;SDS011;20065;48.380;10.892;2023-06-14T08:26:32;6.37;;;4.00;;
33740;SDS011;20065;48.380;10.892;2023-06-14T08:29:18;10.80;;;4.63;;
33740;SDS011;20065;48.380;10.892;2023-06-14T08:32:05;6.67;;;3.40;;
33740;SDS011;20065;48.380;10.892;2023-06-14T08:34:51;6.30;;;3.60;;
33740;SDS011;20065;48.380;10.892;2023-06-14T08:37:41;7.20;;;3.10;;
33740;SDS011;20065;48.380;10.892;2023-06-14T08:40:27;7.77;;;3.10;;
33740;SDS011;20065;48.380;10.892;2023-06-14T08:43:16;14.60;;;3.63;;
33740;SDS011;20065;48.380;10.892;2023-06-14T08:46:03;7.67;;;3.10;;
33740;SDS011;20065;48.380;10.892;2023-06-14T08:48:52;10.27;;;3.67;;
33740;SDS011;20065;48.380;10.892;2023-06-14T08:51:42;5.10;;;2.90;;
33740;SDS011;20065;48.380;10.892;2023-06-14T08:54:29;7.17;;;3.30;;
33740;SDS011;20065;48.380;10.892;2023-06-14T08:57:16;7.40;;;3.60;;
33740;SDS011;20065;48.380;10.892;2023-06-14T09:00:03;5.60;;;3.47;;
33740;SDS011;20065;48.380;10.892;2023-06-14T09:02:59;7.07;;;3.63;;
33740;SDS011;20065;48.380;10.892;2023-06-14T09:05:46;6.00;;;3.57;;
33740;SDS011;20065;48.380;10.892;2023-06-14T09:08:32;5.60;;;3.10;;
33740;SDS011;20065;48.380;10.892;2023-06-14T09:11:18;8.60;;;3.50;;
33740;SDS011;20065;48.380;10.892;2023-06-14T09:14:04;5.40;;;3.53;;
33740;SDS011;20065;48.380;10.892;2023-06-14T09:16:54;8.63;;;3.93;;
33740;SDS011;20065;48.380;10.892;2023-06-14T09:23:09;5.90;;;3.30;;
33740;SDS011;20065;48.380;10.892;2023-06-14T09:25:56;6.50;;;3.40;;
33740;SDS011;20065;48.380;10.892;2023-06-14T09:28:43;5.30;;;3.20;;
33740;SDS011;20065;48.380;10.892;2023-06-14T09:31:31;7.77;;;3.60;;
33740;SDS011;20065;48.380;10.892;2023-06-14T09:34:18;8.00;;;3.10;;
33740;SDS011;20065;48.380;10.892;2023-06-14T09:37:08;5.63;;;3.70;;
33740;SDS011;20065;48.380;10.892;2023-06-14T09:39:55;6.73;;;3.20;;
33740;SDS011;20065;48.380;10.892;2023-06-14T09:42:42;6.73;;;3.20;;
33740;SDS011;20065;48.380;10.892;2023-06-14T09:45:30;7.90;;;3.40;;
33740;SDS011;20065;48.380;10.892;2023-06-14T09:48:17;5.07;;;3.10;;
33740;SDS011;20065;48.380;10.892;2023-06-14T09:51:04;6.93;;;3.10;;
33740;SDS011;20065;48.380;10.892;2023-06-14T09:53:52;12.87;;;3.80;;
33740;SDS011;20065;48.380;10.892;2023-06-14T09:56:41;6.20;;;3.07;;
33740;SDS011;20065;48.380;10.892;2023-06-14T09:59:29;5.03;;;3.17;;
33740;SDS011;20065;48.380;10.892;2023-06-14T10:05:34;7.50;;;3.30;;
33740;SDS011;20065;48.380;10.892;2023-06-14T10:08:30;7.40;;;3.53;;
33740;SDS011;20065;48.380;10.892;2023-06-14T10:11:18;5.93;;;3.23;;
33740;SDS011;20065;48.380;10.892;2023-06-14T10:14:05;10.43;;;3.10;;
33740;SDS011;20065;48.380;10.892;2023-06-14T10:19:55;6.03;;;3.10;;
33740;SDS011;20065;48.380;10.892;2023-06-14T10:23:32;6.10;;;3.50;;
33740;SDS011;20065;48.380;10.892;2023-06-14T10:26:01;5.50;;;2.80;;
33740;SDS011;20065;48.380;10.892;2023-06-14T10:29:30;4.73;;;2.77;;
33740;SDS011;20065;48.380;10.892;2023-06-14T10:31:58;7.20;;;3.77;;
33740;SDS011;20065;48.380;10.892;2023-06-14T10:34:45;6.17;;;2.97;;
33740;SDS011;20065;48.380;10.892;2023-06-14T10:37:38;5.63;;;2.80;;
33740;SDS011;20065;48.380;10.892;2023-06-14T10:40:31;5.30;;;3.20;;
33740;SDS011;20065;48.380;10.892;2023-06-14T10:43:24;4.80;;;2.87;;
33740;SDS011;20065;48.380;10.892;2023-06-14T10:46:19;8.27;;;3.10;;
33740;SDS011;20065;48.380;10.892;2023-06-14T10:49:08;7.60;;;3.20;;
33740;SDS011;20065;48.380;10.892;2023-06-14T10:51:55;5.90;;;3.30;;
33740;SDS011;20065;48.380;10.892;2023-06-14T10:57:52;4.80;;;2.97;;
33740;SDS011;20065;48.380;10.892;2023-06-14T11:00:44;7.00;;;2.80;;
33740;SDS011;20065;48.380;10.892;2023-06-14T11:03:47;7.70;;;3.60;;
33740;SDS011;20065;48.380;10.892;2023-06-14T11:06:50;5.30;;;3.40;;
33740;SDS011;20065;48.380;10.892;2023-06-14T11:12:36;5.00;;;3.00;;
33740;SDS011;20065;48.380;10.892;2023-06-14T11:15:28;5.17;;;3.13;;
33740;SDS011;20065;48.380;10.892;2023-06-14T11:18:16;7.07;;;3.67;;
33740;SDS011;20065;48.380;10.892;2023-06-14T11:21:04;8.97;;;3.37;;
33740;SDS011;20065;48.380;10.892;2023-06-14T11:23:53;7.60;;;3.57;;
33740;SDS011;20065;48.380;10.892;2023-06-14T11:26:41;6.00;;;3.87;;
33740;SDS011;20065;48.380;10.892;2023-06-14T11:29:28;18.17;;;4.23;;
33740;SDS011;20065;48.380;10.892;2023-06-14T11:32:15;5.10;;;3.27;;
33740;SDS011;20065;48.380;10.892;2023-06-14T11:35:02;7.97;;;3.40;;
33740;SDS011;20065;48.380;10.892;2023-06-14T11:37:53;6.60;;;3.50;;
33740;SDS011;20065;48.380;10.892;2023-06-14T11:40:43;5.93;;;2.80;;
33740;SDS011;20065;48.380;10.892;2023-06-14T11:43:29;8.13;;;3.47;;
33740;SDS011;20065;48.380;10.892;2023-06-14T11:46:18;7.77;;;3.10;;
33740;SDS011;20065;48.380;10.892;2023-06-14T11:49:21;5.23;;;2.80;;
33740;SDS011;20065;48.380;10.892;2023-06-14T11:52:09;5.97;;;2.80;;
33740;SDS011;20065;48.380;10.892;2023-06-14T11:54:56;5.13;;;3.37;;
33740;SDS011;20065;48.380;10.892;2023-06-14T11:57:46;5.97;;;3.50;;
33740;SDS011;20065;48.380;10.892;2023-06-14T12:00:38;6.10;;;3.10;;
33740;SDS011;20065;48.380;10.892;2023-06-14T12:03:25;4.97;;;3.40;;
33740;SDS011;20065;48.380;10.892;2023-06-14T12:06:13;5.90;;;3.10;;
33740;SDS011;20065;48.380;10.892;2023-06-14T12:09:02;6.30;;;3.17;;
33740;SDS011;20065;48.380;10.892;2023-06-14T12:11:50;6.13;;;3.80;;
33740;SDS011;20065;48.380;10.892;2023-06-14T12:14:36;10.03;;;3.47;;
33740;SDS011;20065;48.380;10.892;2023-06-14T12:17:22;6.83;;;3.10;;
33740;SDS011;20065;48.380;10.892;2023-06-14T12:20:12;11.97;;;3.00;;
33740;SDS011;20065;48.380;10.892;2023-06-14T12:23:09;3.87;;;2.87;;
33740;SDS011;20065;48.380;10.892;2023-06-14T12:25:58;6.17;;;3.30;;
33740;SDS011;20065;48.380;10.892;2023-06-14T12:28:54;5.57;;;3.37;;
33740;SDS011;20065;48.380;10.892;2023-06-14T12:31:45;7.30;;;3.70;;
33740;SDS011;20065;48.380;10.892;2023-06-14T12:34:53;6.93;;;3.50;;
33740;SDS011;20065;48.380;10.892;2023-06-14T12:37:40;7.53;;;3.57;;
33740;SDS011;20065;48.380;10.892;2023-06-14T12:40:30;6.93;;;3.50;;
33740;SDS011;20065;48.380;10.892;2023-06-14T12:43:19;5.50;;;3.37;;
33740;SDS011;20065;48.380;10.892;2023-06-14T12:46:09;4.77;;;3.10;;
33740;SDS011;20065;48.380;10.892;2023-06-14T12:48:55;6.90;;;3.27;;
33740;SDS011;20065;48.380;10.892;2023-06-14T12:51:41;6.93;;;3.37;;
33740;SDS011;20065;48.380;10.892;2023-06-14T12:54:28;4.87;;;3.10;;
33740;SDS011;20065;48.380;10.892;2023-06-14T12:57:14;7.80;;;2.93;;
33740;SDS011;20065;48.380;10.892;2023-06-14T13:00:00;13.47;;;3.60;;
33740;SDS011;20065;48.380;10.892;2023-06-14T13:02:46;7.97;;;3.60;;
33740;SDS011;20065;48.380;10.892;2023-06-14T13:05:33;6.23;;;3.70;;
33740;SDS011;20065;48.380;10.892;2023-06-14T13:08:19;5.60;;;3.13;;
33740;SDS011;20065;48.380;10.892;2023-06-14T13:11:05;5.00;;;2.70;;
33740;SDS011;20065;48.380;10.892;2023-06-14T13:13:51;8.03;;;3.97;;
33740;SDS011;20065;48.380;10.892;2023-06-14T13:16:37;7.20;;;3.50;;
33740;SDS011;20065;48.380;10.892;2023-06-14T13:19:23;5.20;;;3.60;;
33740;SDS011;20065;48.380;10.892;2023-06-14T13:22:10;5.10;;;3.63;;
33740;SDS011;20065;48.380;10.892;2023-06-14T13:24:57;8.33;;;3.53;;
33740;SDS011;20065;48.380;10.892;2023-06-14T13:27:43;6.00;;;3.57;;
33740;SDS011;20065;48.380;10.892;2023-06-14T13:30:29;11.50;;;3.53;;
33740;SDS011;20065;48.380;10.892;2023-06-14T13:33:16;8.90;;;4.70;;
33740;SDS011;20065;48.380;10.892;2023-06-14T13:36:02;6.87;;;3.90;;
33740;SDS011;20065;48.380;10.892;2023-06-14T13:38:48;11.63;;;4.90;;
33740;SDS011;20065;48.380;10.892;2023-06-14T13:41:36;5.90;;;3.23;;
33740;SDS011;20065;48.380;10.892;2023-06-14T13:44:23;11.20;;;3.70;;
33740;SDS011;20065;48.380;10.892;2023-06-14T13:47:10;6.23;;;3.77;;
33740;SDS011;20065;48.380;10.892;2023-06-14T13:49:59;6.80;;;3.47;;
33740;SDS011;20065;48.380;10.892;2023-06-14T13:53:04;6.43;;;3.40;;
33740;SDS011;20065;48.380;10.892;2023-06-14T13:55:50;7.10;;;3.63;;
33740;SDS011;20065;48.380;10.892;2023-06-14T13:58:38;7.40;;;3.50;;
33740;SDS011;20065;48.380;10.892;2023-06-14T14:01:36;6.40;;;2.70;;
33740;SDS011;20065;48.380;10.892;2023-06-14T14:04:30;6.97;;;3.73;;
33740;SDS011;20065;48.380;10.892;2023-06-14T14:07:16;8.37;;;3.60;;
33740;SDS011;20065;48.380;10.892;2023-06-14T14:10:02;6.57;;;3.20;;
33740;SDS011;20065;48.380;10.892;2023-06-14T14:12:49;5.80;;;3.60;;
33740;SDS011;20065;48.380;10.892;2023-06-14T14:15:36;5.07;;;3.17;;
33740;SDS011;20065;48.380;10.892;2023-06-14T14:18:22;6.90;;;3.40;;
33740;SDS011;20065;48.380;10.892;2023-06-14T14:21:10;6.20;;;3.67;;
33740;SDS011;20065;48.380;10.892;2023-06-14T14:23:56;6.47;;;3.10;;
33740;SDS011;20065;48.380;10.892;2023-06-14T14:26:42;6.40;;;3.50;;
33740;SDS011;20065;48.380;10.892;2023-06-14T14:29:38;6.27;;;3.30;;
33740;SDS011;20065;48.380;10.892;2023-06-14T14:32:24;8.50;;;3.10;;
33740;SDS011;20065;48.380;10.892;2023-06-14T14:35:10;6.97;;;3.63;;
33740;SDS011;20065;48.380;10.892;2023-06-14T14:37:57;5.90;;;3.03;;
33740;SDS011;20065;48.380;10.892;2023-06-14T14:40:43;6.53;;;3.60;;
33740;SDS011;20065;48.380;10.892;2023-06-14T14:43:30;7.10;;;3.47;;
33740;SDS011;20065;48.380;10.892;2023-06-14T14:46:17;5.27;;;3.27;;
33740;SDS011;20065;48.380;10.892;2023-06-14T14:49:10;6.60;;;3.50;;
33740;SDS011;20065;48.380;10.892;2023-06-14T14:54:45;6.37;;;3.80;;
33740;SDS011;20065;48.380;10.892;2023-06-14T14:57:31;7.07;;;3.90;;
33740;SDS011;20065;48.380;10.892;2023-06-14T15:00:18;5.93;;;3.50;;
33740;SDS011;20065;48.380;10.892;2023-06-14T15:03:04;5.03;;;2.97;;
33740;SDS011;20065;48.380;10.892;2023-06-14T15:05:50;8.50;;;3.60;;
33740;SDS011;20065;48.380;10.892;2023-06-14T15:08:36;7.37;;;3.30;;
33740;SDS011;20065;48.380;10.892;2023-06-14T15:11:23;10.07;;;3.43;;
33740;SDS011;20065;48.380;10.892;2023-06-14T15:14:09;5.77;;;3.43;;
33740;SDS011;20065;48.380;10.892;2023-06-14T15:16:55;6.23;;;3.50;;
33740;SDS011;20065;48.380;10.892;2023-06-14T15:19:44;6.30;;;3.03;;
33740;SDS011;20065;48.380;10.892;2023-06-14T15:22:30;5.67;;;3.40;;
33740;SDS011;20065;48.380;10.892;2023-06-14T15:25:17;7.30;;;3.47;;
33740;SDS011;20065;48.380;10.892;2023-06-14T15:28:03;5.70;;;3.03;;
33740;SDS011;20065;48.380;10.892;2023-06-14T15:30:52;4.80;;;3.40;;
33740;SDS011;20065;48.380;10.892;2023-06-14T15:33:38;5.60;;;3.17;;
33740;SDS011;20065;48.380;10.892;2023-06-14T15:36:24;6.73;;;3.07;;
33740;SDS011;20065;48.380;10.892;2023-06-14T15:39:10;7.13;;;4.00;;
33740;SDS011;20065;48.380;10.892;2023-06-14T15:41:57;5.23;;;3.50;;
33740;SDS011;20065;48.380;10.892;2023-06-14T15:44:43;5.97;;;4.10;;
33740;SDS011;20065;48.380;10.892;2023-06-14T15:47:30;5.97;;;3.60;;
33740;SDS011;20065;48.380;10.892;2023-06-14T15:50:17;8.10;;;4.30;;
33740;SDS011;20065;48.380;10.892;2023-06-14T15:53:03;5.60;;;3.10;;
33740;SDS011;20065;48.380;10.892;2023-06-14T15:55:49;6.37;;;3.53;;
33740;SDS011;20065;48.380;10.892;2023-06-14T15:58:35;4.77;;;3.20;;
33740;SDS011;20065;48.380;10.892;2023-06-14T16:01:21;6.33;;;3.13;;
33740;SDS011;20065;48.380;10.892;2023-06-14T16:04:08;6.23;;;3.40;;
33740;SDS011;20065;48.380;10.892;2023-06-14T16:06:55;12.10;;;4.10;;
33740;SDS011;20065;48.380;10.892;2023-06-14T16:09:41;5.40;;;3.60;;
33740;SDS011;20065;48.380;10.892;2023-06-14T16:12:27;10.43;;;3.37;;
33740;SDS011;20065;48.380;10.892;2023-06-14T16:15:13;5.60;;;3.20;;
33740;SDS011;20065;48.380;10.892;2023-06-14T16:18:00;7.50;;;3.30;;
33740;SDS011;20065;48.380;10.892;2023-06-14T16:20:46;9.10;;;3.70;;
33740;SDS011;20065;48.380;10.892;2023-06-14T16:23:33;6.97;;;3.60;;
33740;SDS011;20065;48.380;10.892;2023-06-14T16:26:19;6.53;;;3.83;;
33740;SDS011;20065;48.380;10.892;2023-06-14T16:29:05;6.77;;;3.80;;
33740;SDS011;20065;48.380;10.892;2023-06-14T16:31:51;8.33;;;3.87;;
33740;SDS011;20065;48.380;10.892;2023-06-14T16:34:38;7.03;;;3.90;;
33740;SDS011;20065;48.380;10.892;2023-06-14T16:37:24;5.37;;;3.63;;
33740;SDS011;20065;48.380;10.892;2023-06-14T16:40:10;7.93;;;3.90;;
33740;SDS011;20065;48.380;10.892;2023-06-14T16:42:56;7.47;;;4.10;;
33740;SDS011;20065;48.380;10.892;2023-06-14T16:45:43;12.60;;;5.00;;
33740;SDS011;20065;48.380;10.892;2023-06-14T16:48:29;9.20;;;4.60;;
33740;SDS011;20065;48.380;10.892;2023-06-14T16:51:15;8.13;;;5.37;;
33740;SDS011;20065;48.380;10.892;2023-06-14T16:54:01;6.33;;;4.03;;